createdAt,value
2022-09-06T00:00:29.685Z,49.44
2022-09-06T00:02:58.368Z,49.50
2022-09-06T00:05:26.246Z,49.50
2022-09-06T00:07:54.200Z,49.56
2022-09-06T00:10:22.055Z,49.58
2022-09-06T00:12:49.913Z,49.80
2022-09-06T00:15:18.181Z,49.71
2022-09-06T00:17:46.005Z,49.78
2022-09-06T00:20:16.842Z,49.84
2022-09-06T00:22:44.670Z,49.71
2022-09-06T00:25:12.420Z,49.78
2022-09-06T00:27:40.302Z,49.68
2022-09-06T00:30:08.783Z,49.74
2022-09-06T00:32:36.802Z,49.64
2022-09-06T00:35:06.488Z,49.69
2022-09-06T00:37:34.538Z,49.65
2022-09-06T00:40:02.461Z,49.57
2022-09-06T00:42:30.423Z,49.32
2022-09-06T00:45:00.216Z,49.48
2022-09-06T00:47:29.316Z,49.32
2022-09-06T00:50:00.138Z,49.50
2022-09-06T00:52:29.497Z,49.47
2022-09-06T00:54:57.742Z,49.30
2022-09-06T00:57:27.394Z,49.46
2022-09-06T01:00:00.057Z,49.37
2022-09-06T01:02:28.311Z,49.38
2022-09-06T01:04:56.908Z,49.54
2022-09-06T01:07:42.058Z,49.54
2022-09-06T01:10:28.821Z,49.65
2022-09-06T01:13:37.926Z,49.73
2022-09-06T01:16:12.099Z,49.72
2022-09-06T01:19:00.074Z,49.75
2022-09-06T01:21:49.481Z,49.83
2022-09-06T01:24:51.522Z,49.86
2022-09-06T01:27:34.497Z,50.12
2022-09-06T01:30:09.345Z,50.19
2022-09-06T01:33:13.837Z,50.10
2022-09-06T01:35:53.409Z,50.38
2022-09-06T01:38:21.799Z,50.33
2022-09-06T01:40:49.552Z,50.71
2022-09-06T01:43:31.493Z,50.76
2022-09-06T01:46:40.595Z,50.96
2022-09-06T01:49:26.586Z,50.95
2022-09-06T01:52:14.932Z,51.12
2022-09-06T01:55:07.940Z,50.82
2022-09-06T01:57:50.514Z,50.93
2022-09-06T02:00:20.708Z,50.83
2022-09-06T02:03:14.909Z,50.79
2022-09-06T02:05:54.374Z,51.09
2022-09-06T02:08:34.121Z,51.11
2022-09-06T02:11:04.894Z,51.20
2022-09-06T02:13:39.932Z,51.37
2022-09-06T02:16:12.583Z,51.17
2022-09-06T02:18:47.955Z,51.32
2022-09-06T02:21:24.559Z,51.09
2022-09-06T02:23:55.763Z,51.44
2022-09-06T02:26:28.883Z,51.43
2022-09-06T02:28:57.864Z,51.36
2022-09-06T02:31:32.091Z,51.55
2022-09-06T02:34:01.019Z,51.53
2022-09-06T02:36:31.366Z,51.57
2022-09-06T02:39:02.332Z,51.69
2022-09-06T02:41:31.214Z,51.75
2022-09-06T02:43:59.051Z,51.73
2022-09-06T02:46:27.249Z,51.83
2022-09-06T02:48:55.082Z,51.92
2022-09-06T02:51:22.971Z,51.89
2022-09-06T02:53:50.925Z,52.00
2022-09-06T02:56:18.753Z,52.01
2022-09-06T02:58:46.541Z,51.87
2022-09-06T03:01:14.506Z,51.97
2022-09-06T03:03:42.563Z,52.00
2022-09-06T03:06:10.458Z,52.11
2022-09-06T03:08:38.340Z,51.89
2022-09-06T03:11:06.297Z,51.86
2022-09-06T03:13:34.270Z,51.96
2022-09-06T03:16:02.273Z,51.66
2022-09-06T03:18:30.862Z,52.08
2022-09-06T03:20:59.791Z,51.77
2022-09-06T03:23:29.172Z,51.76
2022-09-06T03:25:57.764Z,51.58
2022-09-06T03:28:26.148Z,51.56
2022-09-06T03:30:54.170Z,51.54
2022-09-06T03:33:22.124Z,51.65
2022-09-06T03:35:52.460Z,51.27
2022-09-06T03:38:21.183Z,51.14
2022-09-06T03:40:49.980Z,51.22
2022-09-06T03:43:18.816Z,50.98
2022-09-06T03:45:52.387Z,50.71
2022-09-06T03:48:22.353Z,50.72
2022-09-06T03:50:52.930Z,50.55
2022-09-06T03:53:21.726Z,50.50
2022-09-06T03:55:52.208Z,50.42
2022-09-06T03:58:22.287Z,50.34
2022-09-06T04:00:59.822Z,50.35
2022-09-06T04:03:27.882Z,50.19
2022-09-06T04:05:55.931Z,50.22
2022-09-06T04:08:23.796Z,50.29
2022-09-06T04:10:55.064Z,50.34
2022-09-06T04:13:23.916Z,50.17
2022-09-06T04:15:52.882Z,50.26
2022-09-06T04:18:22.407Z,50.18
2022-09-06T04:20:52.005Z,50.27
2022-09-06T04:23:21.187Z,50.36
2022-09-06T04:25:55.461Z,50.38
2022-09-06T04:28:24.761Z,50.38
2022-09-06T04:30:54.306Z,50.34
2022-09-06T04:33:26.267Z,50.45
2022-09-06T04:35:57.152Z,50.39
2022-09-06T04:38:26.197Z,50.40
2022-09-06T04:40:55.772Z,50.25
2022-09-06T04:43:25.744Z,50.26
2022-09-06T04:45:53.590Z,50.14
2022-09-06T04:48:21.601Z,49.89
2022-09-06T04:50:49.369Z,49.80
2022-09-06T04:53:17.223Z,49.76
2022-09-06T04:55:44.870Z,49.60
2022-09-06T04:58:13.647Z,49.70
2022-09-06T05:00:45.294Z,49.46
2022-09-06T05:03:13.492Z,49.61
2022-09-06T05:05:41.447Z,49.48
2022-09-06T05:08:09.483Z,49.48
2022-09-06T05:10:37.665Z,49.48
2022-09-06T05:13:05.722Z,49.54
2022-09-06T05:15:34.040Z,49.34
2022-09-06T05:18:04.312Z,49.25
2022-09-06T05:20:32.582Z,49.30
2022-09-06T05:23:01.941Z,49.20
2022-09-06T05:25:31.467Z,48.94
2022-09-06T05:27:59.230Z,49.05
2022-09-06T05:30:27.324Z,48.60
2022-09-06T05:32:55.004Z,48.52
2022-09-06T05:35:22.780Z,48.43
2022-09-06T05:37:50.625Z,48.29
2022-09-06T05:40:18.493Z,48.09
2022-09-06T05:42:46.462Z,47.90
2022-09-06T05:45:14.583Z,47.72
2022-09-06T05:47:42.357Z,47.57
2022-09-06T05:50:11.072Z,47.45
2022-09-06T05:52:39.974Z,47.25
2022-09-06T05:55:08.732Z,46.89
2022-09-06T05:57:36.570Z,46.65
2022-09-06T06:00:31.247Z,46.29
2022-09-06T06:03:02.500Z,46.12
2022-09-06T06:05:31.764Z,45.91
2022-09-06T06:07:59.952Z,45.67
2022-09-06T06:10:28.578Z,45.33
2022-09-06T06:12:57.917Z,45.37
2022-09-06T06:15:25.885Z,45.14
2022-09-06T06:17:53.902Z,44.76
2022-09-06T06:20:21.902Z,44.48
2022-09-06T06:22:49.731Z,44.34
2022-09-06T06:25:22.607Z,43.96
2022-09-06T06:27:50.718Z,43.65
2022-09-06T06:30:18.791Z,43.32
2022-09-06T06:32:46.720Z,43.37
2022-09-06T06:35:40.308Z,42.93
2022-09-06T06:38:33.975Z,42.76
2022-09-06T06:41:06.439Z,42.95
2022-09-06T06:43:38.794Z,42.28
2022-09-06T06:46:13.814Z,41.70
2022-09-06T06:48:44.162Z,40.75
2022-09-06T06:51:14.587Z,39.58
2022-09-06T06:53:43.905Z,39.43
2022-09-06T06:56:20.533Z,38.71
2022-09-06T06:58:50.677Z,38.66
2022-09-06T07:01:21.531Z,37.94
2022-09-06T07:03:50.047Z,38.05
2022-09-06T07:06:19.137Z,37.74
2022-09-06T07:08:47.935Z,37.49
2022-09-06T07:11:20.488Z,37.24
2022-09-06T07:14:18.149Z,37.07
2022-09-06T07:16:46.543Z,36.87
2022-09-06T07:22:04.629Z,36.71
2022-09-06T07:24:34.107Z,35.97
2022-09-06T07:29:53.616Z,35.10
2022-09-06T07:32:23.928Z,35.08
2022-09-06T07:34:51.931Z,35.07
2022-09-06T07:37:20.027Z,35.02
2022-09-06T07:39:51.631Z,34.60
2022-09-06T07:42:20.115Z,34.64
2022-09-06T07:44:48.120Z,34.54
2022-09-06T07:53:13.081Z,33.40
2022-09-06T07:55:47.753Z,32.61
2022-09-06T07:58:16.111Z,32.57
2022-09-06T08:00:44.609Z,32.33
2022-09-06T08:03:12.697Z,32.23
2022-09-06T08:11:44.967Z,31.79
2022-09-06T08:14:12.837Z,31.45
2022-09-06T08:16:40.752Z,31.13
2022-09-06T08:19:09.103Z,31.58
2022-09-06T08:21:36.949Z,30.99
2022-09-06T08:24:07.255Z,31.02
2022-09-06T08:26:39.674Z,30.56
2022-09-06T08:29:09.191Z,30.90
2022-09-06T08:31:41.442Z,30.90
2022-09-06T08:34:13.051Z,30.33
2022-09-06T08:36:42.420Z,30.37
2022-09-06T08:39:10.915Z,30.33
2022-09-06T08:41:51.789Z,30.39
2022-09-06T08:44:58.557Z,30.13
2022-09-06T08:47:53.185Z,30.27
2022-09-06T08:50:22.124Z,29.96
2022-09-06T08:53:16.171Z,29.77
2022-09-06T08:56:12.029Z,29.86
2022-09-06T08:59:01.152Z,29.96
2022-09-06T09:01:36.291Z,30.09
2022-09-06T09:04:07.495Z,30.02
2022-09-06T09:06:36.082Z,29.54
2022-09-06T09:09:07.206Z,29.79
2022-09-06T09:11:36.327Z,29.53
2022-09-06T09:14:18.985Z,29.42
2022-09-06T09:16:51.621Z,29.37
2022-09-06T09:19:19.607Z,29.69
2022-09-06T09:21:47.924Z,29.33
2022-09-06T09:24:16.333Z,29.39
2022-09-06T09:26:58.405Z,29.55
2022-09-06T09:29:29.513Z,29.55
2022-09-06T09:31:58.408Z,29.25
2022-09-06T09:34:34.082Z,28.93
2022-09-06T09:40:34.323Z,28.84
2022-09-06T09:43:15.422Z,29.34
2022-09-06T09:45:44.903Z,29.40
2022-09-06T09:48:25.915Z,29.33
2022-09-06T09:50:59.293Z,29.08
2022-09-06T09:53:31.845Z,29.20
2022-09-06T09:56:03.749Z,29.10
2022-09-06T09:58:35.934Z,28.77
2022-09-06T10:01:31.202Z,29.19
2022-09-06T10:07:18.467Z,28.68
2022-09-06T10:10:21.266Z,28.38
2022-09-06T10:12:49.355Z,28.35
2022-09-06T10:15:37.987Z,28.82
2022-09-06T10:18:06.392Z,28.62
2022-09-06T10:20:50.544Z,27.88
2022-09-06T10:26:38.792Z,28.21
2022-09-06T10:29:10.245Z,28.25
2022-09-06T10:32:02.742Z,28.00
2022-09-06T10:35:03.622Z,27.78
2022-09-06T10:37:56.114Z,27.71
2022-09-06T10:40:57.160Z,27.78
2022-09-06T10:43:33.533Z,27.74
2022-09-06T10:46:15.018Z,27.12
2022-09-06T10:48:46.554Z,27.15
2022-09-06T10:51:21.371Z,26.88
2022-09-06T10:53:52.242Z,27.00
2022-09-06T10:56:52.106Z,26.43
2022-09-06T11:02:16.922Z,26.52
2022-09-06T11:10:45.729Z,26.47
2022-09-06T11:13:18.817Z,26.68
2022-09-06T11:16:13.546Z,26.40
2022-09-06T11:18:47.365Z,26.69
2022-09-06T11:21:27.314Z,26.53
2022-09-06T11:24:10.079Z,26.46
2022-09-06T11:27:12.137Z,26.00
2022-09-06T11:29:44.035Z,26.24
2022-09-06T11:32:33.576Z,25.85
2022-09-06T11:35:07.930Z,25.92
2022-09-06T11:37:44.014Z,25.57
2022-09-06T11:42:53.306Z,26.03
2022-09-06T11:45:40.576Z,25.73
2022-09-06T11:48:24.271Z,25.46
2022-09-06T11:51:06.906Z,25.57
2022-09-06T11:53:55.967Z,25.54
2022-09-06T11:56:32.535Z,25.61
2022-09-06T11:59:36.195Z,25.48
2022-09-06T12:02:29.160Z,25.68
2022-09-06T12:05:05.507Z,25.29
2022-09-06T12:08:03.700Z,24.94
2022-09-06T12:10:46.409Z,25.14
2022-09-06T12:13:44.341Z,25.24
2022-09-06T12:16:19.228Z,25.19
2022-09-06T12:18:49.476Z,25.13
2022-09-06T12:21:38.021Z,25.03
2022-09-06T12:24:11.157Z,24.98
2022-09-06T12:27:16.443Z,25.27
2022-09-06T12:30:03.194Z,25.24
2022-09-06T12:32:37.462Z,25.14
2022-09-06T12:38:19.344Z,25.33
2022-09-06T12:41:01.265Z,25.30
2022-09-06T12:43:37.424Z,25.12
2022-09-06T12:46:11.225Z,25.23
2022-09-06T12:48:45.963Z,25.02
2022-09-06T12:51:31.166Z,24.96
2022-09-06T12:54:09.123Z,25.15
2022-09-06T12:56:48.415Z,24.58
2022-09-06T12:59:32.009Z,24.93
2022-09-06T13:02:24.750Z,25.60
2022-09-06T13:05:13.245Z,25.47
2022-09-06T13:07:51.129Z,25.29
2022-09-06T13:10:28.534Z,25.33
2022-09-06T13:13:05.485Z,25.46
2022-09-06T13:15:41.569Z,25.28
2022-09-06T13:18:38.526Z,25.47
2022-09-06T13:21:17.828Z,24.90
2022-09-06T13:23:53.679Z,24.93
2022-09-06T13:26:39.245Z,24.54
2022-09-06T13:29:31.698Z,24.75
2022-09-06T13:32:12.375Z,24.94
2022-09-06T13:34:57.458Z,25.03
2022-09-06T13:37:40.871Z,24.82
2022-09-06T13:41:00.025Z,25.02
2022-09-06T13:43:40.223Z,24.84
2022-09-06T13:46:10.911Z,24.90
2022-09-06T13:48:44.904Z,25.15
2022-09-06T13:51:13.228Z,25.32
2022-09-06T13:53:41.241Z,25.39
2022-09-06T13:56:10.608Z,25.42
2022-09-06T13:58:38.965Z,25.55
2022-09-06T14:01:08.902Z,25.71
2022-09-06T14:03:40.666Z,25.43
2022-09-06T14:06:09.990Z,25.50
2022-09-06T14:11:33.392Z,25.33
2022-09-06T14:14:01.167Z,25.42
2022-09-06T14:16:54.682Z,25.29
2022-09-06T14:19:47.164Z,25.34
2022-09-06T14:25:45.075Z,25.05
2022-09-06T14:28:13.456Z,24.98
2022-09-06T14:30:41.559Z,24.64
2022-09-06T14:33:09.502Z,24.72
2022-09-06T14:35:37.963Z,24.16
2022-09-06T14:38:06.049Z,24.02
2022-09-06T14:40:38.798Z,24.27
2022-09-06T14:43:06.968Z,24.36
2022-09-06T14:45:36.121Z,24.57
2022-09-06T14:48:04.797Z,24.92
2022-09-06T14:50:32.558Z,25.23
2022-09-06T14:53:02.256Z,25.55
2022-09-06T14:55:30.328Z,25.50
2022-09-06T14:57:59.666Z,25.81
2022-09-06T15:00:27.513Z,25.81
2022-09-06T15:02:56.216Z,25.86
2022-09-06T15:05:24.005Z,25.34
2022-09-06T15:07:51.733Z,25.65
2022-09-06T15:10:20.992Z,25.57
2022-09-06T15:12:48.996Z,26.06
2022-09-06T15:15:16.661Z,25.91
2022-09-06T15:17:46.056Z,25.82
2022-09-06T15:20:13.944Z,25.95
2022-09-06T15:22:41.717Z,25.81
2022-09-06T15:25:11.255Z,26.14
2022-09-06T15:27:39.039Z,26.12
2022-09-06T15:30:07.159Z,26.67
2022-09-06T15:32:34.891Z,26.92
2022-09-06T15:35:04.634Z,26.85
2022-09-06T15:37:32.814Z,26.73
2022-09-06T15:40:00.988Z,26.66
2022-09-06T15:42:29.418Z,26.99
2022-09-06T15:44:57.455Z,26.83
2022-09-06T15:47:25.973Z,27.00
2022-09-06T15:49:54.252Z,27.01
2022-09-06T15:52:22.231Z,27.12
2022-09-06T15:55:09.074Z,27.18
2022-09-06T15:57:37.224Z,27.16
2022-09-06T16:00:05.771Z,27.20
2022-09-06T16:02:33.512Z,27.38
2022-09-06T16:05:01.744Z,27.60
2022-09-06T16:07:30.063Z,27.59
2022-09-06T16:09:59.474Z,27.46
2022-09-06T16:12:28.658Z,27.42
2022-09-06T16:14:58.537Z,27.69
2022-09-06T16:17:27.668Z,27.55
2022-09-06T16:19:55.349Z,27.88
2022-09-06T16:22:24.618Z,27.86
2022-09-06T16:24:52.361Z,27.93
2022-09-06T16:27:20.271Z,28.01
2022-09-06T16:29:48.131Z,28.51
2022-09-06T16:32:17.256Z,28.43
2022-09-06T16:34:46.008Z,27.92
2022-09-06T16:37:14.346Z,28.19
2022-09-06T16:39:43.310Z,28.28
2022-09-06T16:42:12.954Z,28.56
2022-09-06T16:44:41.139Z,28.66
2022-09-06T16:47:10.926Z,28.62
2022-09-06T16:49:41.454Z,29.00
2022-09-06T16:52:09.173Z,29.13
2022-09-06T16:54:39.033Z,29.31
2022-09-06T16:57:06.783Z,29.47
2022-09-06T16:59:34.703Z,29.39
2022-09-06T17:02:02.787Z,29.73
2022-09-06T17:04:30.758Z,29.54
2022-09-06T17:06:58.501Z,29.84
2022-09-06T17:09:26.410Z,29.75
2022-09-06T17:11:54.117Z,30.25
2022-09-06T17:14:21.913Z,30.46
2022-09-06T17:17:05.177Z,30.37
2022-09-06T17:19:41.534Z,30.39
2022-09-06T17:22:10.585Z,30.33
2022-09-06T17:24:40.676Z,30.65
2022-09-06T17:27:09.216Z,30.65
2022-09-06T17:29:37.287Z,30.86
2022-09-06T17:32:10.286Z,31.06
2022-09-06T17:34:39.981Z,30.84
2022-09-06T17:37:07.760Z,31.01
2022-09-06T17:39:35.666Z,31.30
2022-09-06T17:42:04.086Z,31.38
2022-09-06T17:44:31.993Z,31.49
2022-09-06T17:47:12.633Z,31.49
2022-09-06T17:49:45.450Z,31.64
2022-09-06T17:52:15.257Z,31.64
2022-09-06T17:54:44.877Z,31.88
2022-09-06T17:57:13.022Z,32.07
2022-09-06T17:59:40.818Z,32.19
2022-09-06T18:02:08.998Z,32.13
2022-09-06T18:04:45.546Z,32.31
2022-09-06T18:07:50.848Z,32.49
2022-09-06T18:10:18.905Z,32.42
2022-09-06T18:12:46.597Z,32.68
2022-09-06T18:15:14.831Z,32.59
2022-09-06T18:17:42.493Z,32.77
2022-09-06T18:20:10.715Z,32.91
2022-09-06T18:22:40.844Z,32.93
2022-09-06T18:25:17.464Z,32.82
2022-09-06T18:27:48.303Z,32.97
2022-09-06T18:30:16.507Z,32.90
2022-09-06T18:32:44.932Z,33.15
2022-09-06T18:35:16.057Z,33.37
2022-09-06T18:37:44.072Z,32.89
2022-09-06T18:40:20.195Z,33.26
2022-09-06T18:42:55.016Z,33.29
2022-09-06T18:45:29.697Z,33.71
2022-09-06T18:48:05.264Z,33.52
2022-09-06T18:50:46.067Z,33.42
2022-09-06T18:53:27.379Z,33.55
2022-09-06T18:56:04.547Z,33.54
2022-09-06T18:59:04.807Z,33.77
2022-09-06T19:01:42.881Z,33.83
2022-09-06T19:04:16.651Z,34.05
2022-09-06T19:07:00.880Z,34.20
2022-09-06T19:09:35.053Z,34.00
2022-09-06T19:12:08.273Z,33.75
2022-09-06T19:14:43.439Z,33.59
2022-09-06T19:17:20.345Z,33.60
2022-09-06T19:20:00.271Z,33.66
2022-09-06T19:22:35.039Z,33.77
2022-09-06T19:25:07.037Z,33.59
2022-09-06T19:27:51.294Z,33.87
2022-09-06T19:30:26.354Z,33.77
2022-09-06T19:33:00.975Z,33.79
2022-09-06T19:36:07.627Z,33.89
2022-09-06T19:39:02.591Z,34.22
2022-09-06T19:41:50.344Z,34.41
2022-09-06T19:44:27.580Z,34.68
2022-09-06T19:46:59.103Z,34.80
2022-09-06T19:49:32.991Z,34.83
2022-09-06T19:52:13.049Z,34.87
2022-09-06T19:54:56.178Z,35.11
2022-09-06T19:57:34.459Z,34.92
2022-09-06T20:00:18.733Z,35.14
2022-09-06T20:02:46.635Z,35.33
2022-09-06T20:05:23.218Z,35.21
2022-09-06T20:07:51.608Z,35.21
2022-09-06T20:10:23.533Z,35.20
2022-09-06T20:12:54.597Z,35.34
2022-09-06T20:15:31.737Z,35.46
2022-09-06T20:18:02.713Z,35.50
2022-09-06T20:20:32.987Z,35.52
2022-09-06T20:25:47.720Z,35.72
2022-09-06T20:28:28.330Z,35.61
2022-09-06T20:31:11.418Z,35.69
2022-09-06T20:33:39.858Z,36.01
2022-09-06T20:36:10.004Z,35.75
2022-09-06T20:38:43.302Z,35.76
2022-09-06T20:41:13.596Z,35.87
2022-09-06T20:43:41.845Z,36.10
2022-09-06T20:46:18.808Z,36.10
2022-09-06T20:48:47.088Z,36.31
2022-09-06T20:51:20.692Z,36.41
2022-09-06T20:53:54.149Z,36.56
2022-09-06T20:56:26.159Z,36.74
2022-09-06T20:58:58.308Z,36.96
2022-09-06T21:01:33.747Z,37.16
2022-09-06T21:04:04.408Z,37.47
2022-09-06T21:06:36.537Z,37.67
2022-09-06T21:09:14.861Z,37.87
2022-09-06T21:11:43.503Z,38.07
2022-09-06T21:14:12.032Z,38.22
2022-09-06T21:17:06.325Z,38.17
2022-09-06T21:19:59.148Z,38.32
2022-09-06T21:22:29.588Z,38.50
2022-09-06T21:24:57.647Z,38.76
2022-09-06T21:27:26.369Z,38.92
2022-09-06T21:29:54.285Z,38.99
2022-09-06T21:32:21.941Z,38.88
2022-09-06T21:34:49.756Z,38.94
2022-09-06T21:37:17.925Z,39.20
2022-09-06T21:39:45.776Z,39.29
2022-09-06T21:42:13.527Z,39.18
2022-09-06T21:44:41.320Z,39.59
2022-09-06T21:47:09.548Z,39.50
2022-09-06T21:49:39.145Z,40.04
2022-09-06T21:52:07.204Z,40.21
2022-09-06T21:54:35.126Z,40.51
2022-09-06T21:57:03.056Z,40.68
2022-09-06T21:59:30.662Z,40.79
2022-09-06T22:01:59.258Z,40.81
2022-09-06T22:04:27.379Z,41.11
2022-09-06T22:06:55.197Z,41.31
2022-09-06T22:09:23.299Z,41.43
2022-09-06T22:11:52.006Z,41.58
2022-09-06T22:14:19.909Z,41.86
2022-09-06T22:16:48.580Z,41.92
2022-09-06T22:19:16.450Z,42.02
2022-09-06T22:21:47.047Z,42.23
2022-09-06T22:24:16.589Z,42.37
2022-09-06T22:26:44.358Z,42.56
2022-09-06T22:29:13.802Z,42.66
2022-09-06T22:31:41.870Z,42.77
2022-09-06T22:34:10.617Z,42.89
2022-09-06T22:36:38.898Z,43.11
2022-09-06T22:39:06.988Z,43.28
2022-09-06T22:41:34.727Z,43.50
2022-09-06T22:44:03.756Z,43.57
2022-09-06T22:46:32.427Z,43.50
2022-09-06T22:49:00.722Z,43.69
2022-09-06T22:51:28.662Z,43.61
2022-09-06T22:53:57.243Z,43.85
2022-09-06T22:56:25.245Z,43.95
2022-09-06T22:58:53.089Z,44.12
2022-09-06T23:01:21.055Z,44.15
2022-09-06T23:03:50.943Z,44.26
2022-09-06T23:06:18.851Z,44.37
2022-09-06T23:08:46.695Z,44.44
2022-09-06T23:11:19.039Z,44.55
2022-09-06T23:13:47.675Z,44.43
2022-09-06T23:16:19.334Z,44.57
2022-09-06T23:18:48.838Z,44.65
2022-09-06T23:21:20.066Z,44.67
2022-09-06T23:23:49.394Z,44.43
2022-09-06T23:26:19.777Z,44.50
2022-09-06T23:28:51.483Z,44.69
2022-09-06T23:31:19.600Z,44.78
2022-09-06T23:33:47.693Z,44.66
2022-09-06T23:36:15.559Z,44.81
2022-09-06T23:38:44.363Z,44.80
2022-09-06T23:41:13.617Z,44.82
2022-09-06T23:43:42.926Z,45.05
2022-09-06T23:46:13.128Z,45.19
2022-09-06T23:48:42.029Z,45.24
2022-09-06T23:51:10.611Z,45.18
2022-09-06T23:53:39.695Z,45.55
2022-09-06T23:56:08.400Z,45.53
2022-09-06T23:58:36.972Z,45.51
